sensor_id;sensor_type;location;lat;lon;timestamp;P1;P2;P0
20157;PMS5003;10239;56.820;24.416;2024-03-06T00:01:17;1.00;1.00;0.00
20157;PMS5003;10239;56.820;24.416;2024-03-06T00:03:45;1.20;0.00;0.00
20157;PMS5003;10239;56.820;24.416;2024-03-06T00:06:12;0.20;0.20;0.00
20157;PMS5003;10239;56.820;24.416;2024-03-06T00:08:40;0.00;0.00;0.00
20157;PMS5003;10239;56.820;24.416;2024-03-06T00:11:07;0.80;0.80;0.00
20157;PMS5003;10239;56.820;24.416;2024-03-06T00:13:35;1.00;1.00;0.00
20157;PMS5003;10239;56.820;24.416;2024-03-06T00:16:03;0.20;0.20;0.00
20157;PMS5003;10239;56.820;24.416;2024-03-06T00:18:31;0.00;0.00;0.00
20157;PMS5003;10239;56.820;24.416;2024-03-06T00:21:00;1.40;1.40;0.00
20157;PMS5003;10239;56.820;24.416;2024-03-06T00:23:27;0.00;0.00;0.00
20157;PMS5003;10239;56.820;24.416;2024-03-06T00:25:55;1.80;1.80;0.00
20157;PMS5003;10239;56.820;24.416;2024-03-06T00:28:22;0.00;0.00;0.00
20157;PMS5003;10239;56.820;24.416;2024-03-06T00:30:51;0.00;0.00;0.00
20157;PMS5003;10239;56.820;24.416;2024-03-06T00:33:18;1.00;1.00;0.00
20157;PMS5003;10239;56.820;24.416;2024-03-06T00:35:46;1.00;1.00;0.00
20157;PMS5003;10239;56.820;24.416;2024-03-06T00:38:13;1.00;1.00;0.00
20157;PMS5003;10239;56.820;24.416;2024-03-06T00:40:47;1.00;1.00;0.00
20157;PMS5003;10239;56.820;24.416;2024-03-06T00:43:15;1.20;0.20;0.00
20157;PMS5003;10239;56.820;24.416;2024-03-06T00:45:42;0.20;0.20;0.00
20157;PMS5003;10239;56.820;24.416;2024-03-06T00:48:10;1.20;1.20;0.00
20157;PMS5003;10239;56.820;24.416;2024-03-06T00:50:38;1.60;0.20;0.00
20157;PMS5003;10239;56.820;24.416;2024-03-06T00:53:06;0.60;0.60;0.00
20157;PMS5003;10239;56.820;24.416;2024-03-06T00:55:34;1.20;1.20;0.00
20157;PMS5003;10239;56.820;24.416;2024-03-06T00:58:01;1.60;1.60;0.00
20157;PMS5003;10239;56.820;24.416;2024-03-06T01:00:29;0.00;0.00;0.00
20157;PMS5003;10239;56.820;24.416;2024-03-06T01:02:57;0.00;0.00;0.00
20157;PMS5003;10239;56.820;24.416;2024-03-06T01:05:25;0.60;0.60;0.00
20157;PMS5003;10239;56.820;24.416;2024-03-06T01:07:53;0.00;0.00;0.00
20157;PMS5003;10239;56.820;24.416;2024-03-06T01:10:23;1.80;1.00;0.00
20157;PMS5003;10239;56.820;24.416;2024-03-06T01:12:51;0.80;0.80;0.00
20157;PMS5003;10239;56.820;24.416;2024-03-06T01:15:19;3.00;0.25;0.00
20157;PMS5003;10239;56.820;24.416;2024-03-06T01:17:46;1.00;1.00;0.00
20157;PMS5003;10239;56.820;24.416;2024-03-06T01:20:14;0.00;0.00;0.00
20157;PMS5003;10239;56.820;24.416;2024-03-06T01:22:43;0.00;0.00;0.00
20157;PMS5003;10239;56.820;24.416;2024-03-06T01:25:12;3.80;1.00;0.00
20157;PMS5003;10239;56.820;24.416;2024-03-06T01:27:40;1.00;1.00;0.00
20157;PMS5003;10239;56.820;24.416;2024-03-06T01:30:08;1.00;1.00;0.00
20157;PMS5003;10239;56.820;24.416;2024-03-06T01:32:36;0.20;0.20;0.00
20157;PMS5003;10239;56.820;24.416;2024-03-06T01:35:04;1.80;0.20;0.00
20157;PMS5003;10239;56.820;24.416;2024-03-06T01:37:33;0.50;0.50;0.00
20157;PMS5003;10239;56.820;24.416;2024-03-06T01:40:01;0.00;0.00;0.00
20157;PMS5003;10239;56.820;24.416;2024-03-06T01:42:31;0.25;0.25;0.00
20157;PMS5003;10239;56.820;24.416;2024-03-06T01:44:59;1.00;1.00;0.00
20157;PMS5003;10239;56.820;24.416;2024-03-06T01:47:27;0.80;0.80;0.00
20157;PMS5003;10239;56.820;24.416;2024-03-06T01:49:54;0.00;0.00;0.00
20157;PMS5003;10239;56.820;24.416;2024-03-06T01:52:22;0.60;0.60;0.00
20157;PMS5003;10239;56.820;24.416;2024-03-06T01:54:50;1.00;1.00;0.40
20157;PMS5003;10239;56.820;24.416;2024-03-06T01:57:18;3.00;0.00;0.00
20157;PMS5003;10239;56.820;24.416;2024-03-06T01:59:47;0.00;0.00;0.00
20157;PMS5003;10239;56.820;24.416;2024-03-06T02:02:16;0.00;0.00;0.00
20157;PMS5003;10239;56.820;24.416;2024-03-06T02:04:43;0.00;0.00;0.00
20157;PMS5003;10239;56.820;24.416;2024-03-06T02:07:11;1.00;1.00;0.00
20157;PMS5003;10239;56.820;24.416;2024-03-06T02:09:41;3.25;0.50;0.00
20157;PMS5003;10239;56.820;24.416;2024-03-06T02:12:09;0.00;0.00;0.00
20157;PMS5003;10239;56.820;24.416;2024-03-06T02:14:37;0.00;0.00;0.00
20157;PMS5003;10239;56.820;24.416;2024-03-06T02:17:05;1.00;0.00;0.00
20157;PMS5003;10239;56.820;24.416;2024-03-06T02:19:37;0.00;0.00;0.00
20157;PMS5003;10239;56.820;24.416;2024-03-06T02:22:07;0.00;0.00;0.00
20157;PMS5003;10239;56.820;24.416;2024-03-06T02:24:35;0.00;0.00;0.00
20157;PMS5003;10239;56.820;24.416;2024-03-06T02:27:04;0.25;0.00;0.00
20157;PMS5003;10239;56.820;24.416;2024-03-06T02:29:32;0.00;0.00;0.00
20157;PMS5003;10239;56.820;24.416;2024-03-06T02:32:00;1.00;1.00;0.00
20157;PMS5003;10239;56.820;24.416;2024-03-06T02:34:31;1.00;1.00;0.00
20157;PMS5003;10239;56.820;24.416;2024-03-06T02:36:59;1.00;1.00;0.00
20157;PMS5003;10239;56.820;24.416;2024-03-06T02:39:27;0.00;0.00;0.00
20157;PMS5003;10239;56.820;24.416;2024-03-06T02:41:54;1.00;1.00;0.00
20157;PMS5003;10239;56.820;24.416;2024-03-06T02:44:22;2.00;1.00;0.00
20157;PMS5003;10239;56.820;24.416;2024-03-06T02:46:50;1.50;1.00;0.00
20157;PMS5003;10239;56.820;24.416;2024-03-06T02:49:18;2.00;0.00;0.00
20157;PMS5003;10239;56.820;24.416;2024-03-06T02:51:45;0.00;0.00;0.00
20157;PMS5003;10239;56.820;24.416;2024-03-06T02:54:13;0.00;0.00;0.00
20157;PMS5003;10239;56.820;24.416;2024-03-06T02:56:41;0.75;0.75;0.00
20157;PMS5003;10239;56.820;24.416;2024-03-06T02:59:08;0.25;0.25;0.00
20157;PMS5003;10239;56.820;24.416;2024-03-06T03:01:36;0.25;0.25;0.00
20157;PMS5003;10239;56.820;24.416;2024-03-06T03:04:03;0.50;0.50;0.00
20157;PMS5003;10239;56.820;24.416;2024-03-06T03:06:33;0.00;0.00;0.00
20157;PMS5003;10239;56.820;24.416;2024-03-06T03:09:01;2.00;1.00;0.00
20157;PMS5003;10239;56.820;24.416;2024-03-06T03:11:30;1.00;0.00;0.00
20157;PMS5003;10239;56.820;24.416;2024-03-06T03:13:59;1.50;0.00;0.00
20157;PMS5003;10239;56.820;24.416;2024-03-06T03:16:26;0.75;0.75;0.00
20157;PMS5003;10239;56.820;24.416;2024-03-06T03:18:54;3.75;0.00;0.00
20157;PMS5003;10239;56.820;24.416;2024-03-06T03:21:22;0.25;0.25;0.00
20157;PMS5003;10239;56.820;24.416;2024-03-06T03:23:49;5.50;1.50;0.00
20157;PMS5003;10239;56.820;24.416;2024-03-06T03:26:17;5.25;1.00;0.00
20157;PMS5003;10239;56.820;24.416;2024-03-06T03:28:45;1.50;1.00;0.00
20157;PMS5003;10239;56.820;24.416;2024-03-06T03:31:12;1.00;1.00;0.00
20157;PMS5003;10239;56.820;24.416;2024-03-06T03:33:40;1.00;1.00;1.00
20157;PMS5003;10239;56.820;24.416;2024-03-06T03:36:08;1.00;1.00;0.00
20157;PMS5003;10239;56.820;24.416;2024-03-06T03:38:37;0.00;0.00;0.00
20157;PMS5003;10239;56.820;24.416;2024-03-06T03:41:08;3.25;1.00;0.00
20157;PMS5003;10239;56.820;24.416;2024-03-06T03:43:37;0.00;0.00;0.00
20157;PMS5003;10239;56.820;24.416;2024-03-06T03:46:06;1.25;0.25;0.00
20157;PMS5003;10239;56.820;24.416;2024-03-06T03:48:35;0.00;0.00;0.00
20157;PMS5003;10239;56.820;24.416;2024-03-06T03:51:04;0.50;0.50;0.00
20157;PMS5003;10239;56.820;24.416;2024-03-06T03:53:34;1.00;1.00;0.00
20157;PMS5003;10239;56.820;24.416;2024-03-06T03:56:02;1.00;1.00;0.00
20157;PMS5003;10239;56.820;24.416;2024-03-06T03:58:30;0.50;0.50;0.00
20157;PMS5003;10239;56.820;24.416;2024-03-06T04:00:58;0.00;0.00;0.00
20157;PMS5003;10239;56.820;24.416;2024-03-06T04:03:26;1.00;1.00;0.00
20157;PMS5003;10239;56.820;24.416;2024-03-06T04:05:53;2.00;0.00;0.00
20157;PMS5003;10239;56.820;24.416;2024-03-06T04:08:20;7.25;3.50;1.00
20157;PMS5003;10239;56.820;24.416;2024-03-06T04:10:48;1.75;1.00;0.00
20157;PMS5003;10239;56.820;24.416;2024-03-06T04:13:15;0.00;0.00;0.00
20157;PMS5003;10239;56.820;24.416;2024-03-06T04:15:43;4.00;1.00;0.00
20157;PMS5003;10239;56.820;24.416;2024-03-06T04:18:10;0.00;0.00;0.00
20157;PMS5003;10239;56.820;24.416;2024-03-06T04:20:38;1.00;1.00;0.00
20157;PMS5003;10239;56.820;24.416;2024-03-06T04:23:05;4.00;2.00;0.00
20157;PMS5003;10239;56.820;24.416;2024-03-06T04:25:33;1.50;1.50;0.00
20157;PMS5003;10239;56.820;24.416;2024-03-06T04:28:01;3.50;1.00;0.25
20157;PMS5003;10239;56.820;24.416;2024-03-06T04:30:29;4.00;0.00;0.00
20157;PMS5003;10239;56.820;24.416;2024-03-06T04:32:56;1.00;1.00;1.00
20157;PMS5003;10239;56.820;24.416;2024-03-06T04:35:24;3.00;1.00;0.00
20157;PMS5003;10239;56.820;24.416;2024-03-06T04:37:52;5.50;3.00;0.75
20157;PMS5003;10239;56.820;24.416;2024-03-06T04:40:19;3.25;1.50;1.00
20157;PMS5003;10239;56.820;24.416;2024-03-06T04:42:49;1.50;1.50;0.25
20157;PMS5003;10239;56.820;24.416;2024-03-06T04:45:17;1.00;1.00;0.00
20157;PMS5003;10239;56.820;24.416;2024-03-06T04:47:45;0.25;0.25;0.00
20157;PMS5003;10239;56.820;24.416;2024-03-06T04:50:12;0.50;0.50;0.00
20157;PMS5003;10239;56.820;24.416;2024-03-06T04:52:41;4.00;1.00;0.00
20157;PMS5003;10239;56.820;24.416;2024-03-06T04:55:09;3.75;3.00;0.25
20157;PMS5003;10239;56.820;24.416;2024-03-06T04:57:38;0.00;0.00;0.00
20157;PMS5003;10239;56.820;24.416;2024-03-06T05:00:07;0.25;0.25;0.00
20157;PMS5003;10239;56.820;24.416;2024-03-06T05:02:35;0.50;0.50;0.00
20157;PMS5003;10239;56.820;24.416;2024-03-06T05:05:21;1.00;1.00;0.00
20157;PMS5003;10239;56.820;24.416;2024-03-06T05:08:06;0.00;0.00;0.00
20157;PMS5003;10239;56.820;24.416;2024-03-06T05:10:51;0.25;0.25;0.00
20157;PMS5003;10239;56.820;24.416;2024-03-06T05:13:36;1.00;1.00;0.00
20157;PMS5003;10239;56.820;24.416;2024-03-06T05:16:20;4.00;3.00;0.75
20157;PMS5003;10239;56.820;24.416;2024-03-06T05:19:08;3.75;3.00;1.00
20157;PMS5003;10239;56.820;24.416;2024-03-06T05:21:54;10.25;5.00;3.00
20157;PMS5003;10239;56.820;24.416;2024-03-06T05:24:39;6.75;3.00;1.00
20157;PMS5003;10239;56.820;24.416;2024-03-06T05:27:25;1.50;1.00;0.25
20157;PMS5003;10239;56.820;24.416;2024-03-06T05:30:10;2.00;1.00;0.00
20157;PMS5003;10239;56.820;24.416;2024-03-06T05:32:55;3.00;1.00;0.00
20157;PMS5003;10239;56.820;24.416;2024-03-06T05:35:40;1.00;1.00;0.00
20157;PMS5003;10239;56.820;24.416;2024-03-06T05:38:24;3.25;3.25;0.25
20157;PMS5003;10239;56.820;24.416;2024-03-06T05:41:09;4.00;1.50;1.00
20157;PMS5003;10239;56.820;24.416;2024-03-06T05:43:54;3.75;3.25;1.00
20157;PMS5003;10239;56.820;24.416;2024-03-06T05:46:39;4.75;3.00;1.00
20157;PMS5003;10239;56.820;24.416;2024-03-06T05:49:24;4.00;3.00;0.00
20157;PMS5003;10239;56.820;24.416;2024-03-06T05:52:09;3.60;2.00;0.00
20157;PMS5003;10239;56.820;24.416;2024-03-06T05:54:54;3.00;1.00;0.00
20157;PMS5003;10239;56.820;24.416;2024-03-06T05:57:40;0.20;0.20;0.00
20157;PMS5003;10239;56.820;24.416;2024-03-06T06:00:29;1.00;1.00;0.00
20157;PMS5003;10239;56.820;24.416;2024-03-06T06:02:57;2.60;2.60;1.00
20157;PMS5003;10239;56.820;24.416;2024-03-06T06:05:24;0.00;0.00;0.00
20157;PMS5003;10239;56.820;24.416;2024-03-06T06:07:51;2.60;1.00;0.00
20157;PMS5003;10239;56.820;24.416;2024-03-06T06:10:19;2.20;2.20;0.80
20157;PMS5003;10239;56.820;24.416;2024-03-06T06:12:48;1.00;0.80;0.00
20157;PMS5003;10239;56.820;24.416;2024-03-06T06:15:16;0.00;0.00;0.00
20157;PMS5003;10239;56.820;24.416;2024-03-06T06:17:44;1.20;1.20;0.80
20157;PMS5003;10239;56.820;24.416;2024-03-06T06:20:13;2.60;2.00;0.00
20157;PMS5003;10239;56.820;24.416;2024-03-06T06:22:43;1.20;1.20;0.00
20157;PMS5003;10239;56.820;24.416;2024-03-06T06:25:11;0.00;0.00;0.00
20157;PMS5003;10239;56.820;24.416;2024-03-06T06:27:39;4.60;1.00;0.60
20157;PMS5003;10239;56.820;24.416;2024-03-06T06:30:07;1.00;1.00;0.60
20157;PMS5003;10239;56.820;24.416;2024-03-06T06:32:41;2.80;1.60;0.00
20157;PMS5003;10239;56.820;24.416;2024-03-06T06:35:10;4.20;1.60;0.20
20157;PMS5003;10239;56.820;24.416;2024-03-06T06:37:40;0.20;0.20;0.00
20157;PMS5003;10239;56.820;24.416;2024-03-06T06:40:08;2.40;1.20;0.00
20157;PMS5003;10239;56.820;24.416;2024-03-06T06:42:37;2.80;1.00;0.00
20157;PMS5003;10239;56.820;24.416;2024-03-06T06:45:05;3.80;2.20;0.40
20157;PMS5003;10239;56.820;24.416;2024-03-06T06:47:36;2.80;2.80;1.00
20157;PMS5003;10239;56.820;24.416;2024-03-06T06:50:04;4.20;2.00;0.00
20157;PMS5003;10239;56.820;24.416;2024-03-06T06:52:33;1.00;1.00;0.40
20157;PMS5003;10239;56.820;24.416;2024-03-06T06:55:01;1.00;1.00;0.00
20157;PMS5003;10239;56.820;24.416;2024-03-06T06:57:31;3.00;1.60;0.00
20157;PMS5003;10239;56.820;24.416;2024-03-06T07:00:02;4.20;1.00;0.00
20157;PMS5003;10239;56.820;24.416;2024-03-06T07:02:38;1.80;1.80;0.20
20157;PMS5003;10239;56.820;24.416;2024-03-06T07:05:06;2.20;0.20;0.00
20157;PMS5003;10239;56.820;24.416;2024-03-06T07:07:35;6.60;2.80;1.00
20157;PMS5003;10239;56.820;24.416;2024-03-06T07:10:03;2.00;2.00;1.00
20157;PMS5003;10239;56.820;24.416;2024-03-06T07:12:32;2.20;2.20;1.00
20157;PMS5003;10239;56.820;24.416;2024-03-06T07:15:00;2.00;1.00;1.00
20157;PMS5003;10239;56.820;24.416;2024-03-06T07:17:27;3.40;1.60;0.40
20157;PMS5003;10239;56.820;24.416;2024-03-06T07:19:55;2.60;2.60;0.40
20157;PMS5003;10239;56.820;24.416;2024-03-06T07:22:23;2.00;2.00;1.00
20157;PMS5003;10239;56.820;24.416;2024-03-06T07:24:51;2.00;2.00;1.00
20157;PMS5003;10239;56.820;24.416;2024-03-06T07:27:18;1.60;1.60;1.00
20157;PMS5003;10239;56.820;24.416;2024-03-06T07:29:46;1.80;0.00;0.00
20157;PMS5003;10239;56.820;24.416;2024-03-06T07:32:14;2.20;2.20;1.40
20157;PMS5003;10239;56.820;24.416;2024-03-06T07:34:41;3.20;3.20;1.00
20157;PMS5003;10239;56.820;24.416;2024-03-06T07:37:09;1.40;1.20;0.60
20157;PMS5003;10239;56.820;24.416;2024-03-06T07:39:36;2.20;1.80;0.20
20157;PMS5003;10239;56.820;24.416;2024-03-06T07:42:05;2.80;2.80;1.00
20157;PMS5003;10239;56.820;24.416;2024-03-06T07:44:33;3.60;1.40;1.00
20157;PMS5003;10239;56.820;24.416;2024-03-06T07:47:03;1.00;1.00;0.60
20157;PMS5003;10239;56.820;24.416;2024-03-06T07:49:30;6.60;2.20;1.00
20157;PMS5003;10239;56.820;24.416;2024-03-06T07:51:58;4.80;3.80;1.00
20157;PMS5003;10239;56.820;24.416;2024-03-06T07:54:26;4.00;3.00;1.75
20157;PMS5003;10239;56.820;24.416;2024-03-06T07:56:53;2.75;2.75;1.00
20157;PMS5003;10239;56.820;24.416;2024-03-06T07:59:21;3.75;3.75;1.00
20157;PMS5003;10239;56.820;24.416;2024-03-06T08:01:48;2.50;2.50;1.00
20157;PMS5003;10239;56.820;24.416;2024-03-06T08:04:16;2.50;2.50;1.00
20157;PMS5003;10239;56.820;24.416;2024-03-06T08:06:43;3.75;3.00;1.00
20157;PMS5003;10239;56.820;24.416;2024-03-06T08:09:11;1.00;1.00;1.00
20157;PMS5003;10239;56.820;24.416;2024-03-06T08:11:38;7.25;3.25;0.00
20157;PMS5003;10239;56.820;24.416;2024-03-06T08:14:05;3.50;1.75;1.00
20157;PMS5003;10239;56.820;24.416;2024-03-06T08:16:33;4.50;3.00;1.00
20157;PMS5003;10239;56.820;24.416;2024-03-06T08:19:03;4.25;2.25;0.75
20157;PMS5003;10239;56.820;24.416;2024-03-06T08:21:31;3.50;3.50;1.25
20157;PMS5003;10239;56.820;24.416;2024-03-06T08:23:58;2.50;1.00;0.00
20157;PMS5003;10239;56.820;24.416;2024-03-06T08:26:25;3.00;3.00;1.00
20157;PMS5003;10239;56.820;24.416;2024-03-06T08:28:53;2.00;2.00;1.00
20157;PMS5003;10239;56.820;24.416;2024-03-06T08:31:21;6.40;2.60;1.00
20157;PMS5003;10239;56.820;24.416;2024-03-06T08:33:49;4.60;3.00;1.80
20157;PMS5003;10239;56.820;24.416;2024-03-06T08:36:17;3.80;3.80;1.00
20157;PMS5003;10239;56.820;24.416;2024-03-06T08:38:45;1.60;1.60;0.80
20157;PMS5003;10239;56.820;24.416;2024-03-06T08:41:13;4.80;3.00;1.40
20157;PMS5003;10239;56.820;24.416;2024-03-06T08:43:40;2.00;2.00;0.00
20157;PMS5003;10239;56.820;24.416;2024-03-06T08:46:08;2.00;0.80;0.00
20157;PMS5003;10239;56.820;24.416;2024-03-06T08:48:35;6.00;3.00;1.00
20157;PMS5003;10239;56.820;24.416;2024-03-06T08:51:03;4.40;2.40;2.00
20157;PMS5003;10239;56.820;24.416;2024-03-06T08:53:37;5.00;4.60;1.00
20157;PMS5003;10239;56.820;24.416;2024-03-06T08:56:05;4.80;2.20;1.00
20157;PMS5003;10239;56.820;24.416;2024-03-06T08:58:33;3.80;3.00;1.00
20157;PMS5003;10239;56.820;24.416;2024-03-06T09:01:00;2.80;2.20;1.00
20157;PMS5003;10239;56.820;24.416;2024-03-06T09:03:28;3.80;3.00;1.00
20157;PMS5003;10239;56.820;24.416;2024-03-06T09:05:55;2.20;2.20;0.00
20157;PMS5003;10239;56.820;24.416;2024-03-06T09:08:22;2.60;2.60;1.20
20157;PMS5003;10239;56.820;24.416;2024-03-06T09:10:50;6.80;4.00;2.00
20157;PMS5003;10239;56.820;24.416;2024-03-06T09:13:17;3.40;3.20;1.00
20157;PMS5003;10239;56.820;24.416;2024-03-06T09:15:44;3.20;2.40;1.00
20157;PMS5003;10239;56.820;24.416;2024-03-06T09:18:11;7.20;4.00;2.00
20157;PMS5003;10239;56.820;24.416;2024-03-06T09:20:39;12.20;10.00;6.40
20157;PMS5003;10239;56.820;24.416;2024-03-06T09:23:06;24.80;16.40;7.80
20157;PMS5003;10239;56.820;24.416;2024-03-06T09:25:34;8.60;8.60;3.80
20157;PMS5003;10239;56.820;24.416;2024-03-06T09:28:01;5.80;2.80;0.00
20157;PMS5003;10239;56.820;24.416;2024-03-06T09:30:31;9.00;5.80;3.00
20157;PMS5003;10239;56.820;24.416;2024-03-06T09:32:58;4.00;4.00;2.20
20157;PMS5003;10239;56.820;24.416;2024-03-06T09:35:26;6.40;4.80;2.40
20157;PMS5003;10239;56.820;24.416;2024-03-06T09:37:53;7.60;3.60;1.80
20157;PMS5003;10239;56.820;24.416;2024-03-06T09:40:23;3.80;3.80;2.00
20157;PMS5003;10239;56.820;24.416;2024-03-06T09:42:51;1.60;1.60;0.00
20157;PMS5003;10239;56.820;24.416;2024-03-06T09:45:19;3.80;3.80;2.00
20157;PMS5003;10239;56.820;24.416;2024-03-06T09:47:49;2.40;1.20;1.00
20157;PMS5003;10239;56.820;24.416;2024-03-06T09:50:24;6.00;2.00;0.00
20157;PMS5003;10239;56.820;24.416;2024-03-06T09:52:55;2.00;2.00;0.80
20157;PMS5003;10239;56.820;24.416;2024-03-06T09:55:23;5.20;5.20;2.00
20157;PMS5003;10239;56.820;24.416;2024-03-06T09:57:52;5.80;1.80;1.00
20157;PMS5003;10239;56.820;24.416;2024-03-06T10:00:20;2.00;2.00;1.00
20157;PMS5003;10239;56.820;24.416;2024-03-06T10:02:54;6.20;4.60;2.00
20157;PMS5003;10239;56.820;24.416;2024-03-06T10:05:27;2.80;2.00;1.00
20157;PMS5003;10239;56.820;24.416;2024-03-06T10:07:55;2.00;2.00;1.00
20157;PMS5003;10239;56.820;24.416;2024-03-06T10:10:23;2.00;2.00;0.60
20157;PMS5003;10239;56.820;24.416;2024-03-06T10:12:50;1.00;1.00;0.00
20157;PMS5003;10239;56.820;24.416;2024-03-06T10:15:19;3.80;2.00;1.00
20157;PMS5003;10239;56.820;24.416;2024-03-06T10:17:48;2.60;2.60;1.00
20157;PMS5003;10239;56.820;24.416;2024-03-06T10:20:20;2.20;1.40;1.00
20157;PMS5003;10239;56.820;24.416;2024-03-06T10:22:49;3.20;3.20;1.00
20157;PMS5003;10239;56.820;24.416;2024-03-06T10:25:24;5.00;5.00;1.20
20157;PMS5003;10239;56.820;24.416;2024-03-06T10:28:09;2.60;2.20;0.20
20157;PMS5003;10239;56.820;24.416;2024-03-06T10:30:39;3.00;2.00;1.00
20157;PMS5003;10239;56.820;24.416;2024-03-06T10:33:12;4.40;3.00;2.00
20157;PMS5003;10239;56.820;24.416;2024-03-06T10:35:43;2.00;2.00;1.00
20157;PMS5003;10239;56.820;24.416;2024-03-06T10:38:12;6.00;2.00;1.00
20157;PMS5003;10239;56.820;24.416;2024-03-06T10:40:40;7.00;1.00;1.00
20157;PMS5003;10239;56.820;24.416;2024-03-06T10:43:09;2.60;2.60;1.00
20157;PMS5003;10239;56.820;24.416;2024-03-06T10:48:19;2.00;2.00;0.00
20157;PMS5003;10239;56.820;24.416;2024-03-06T10:50:48;2.40;2.00;1.00
20157;PMS5003;10239;56.820;24.416;2024-03-06T10:53:18;2.80;2.80;1.00
20157;PMS5003;10239;56.820;24.416;2024-03-06T10:55:50;1.60;1.60;1.00
20157;PMS5003;10239;56.820;24.416;2024-03-06T10:58:18;1.00;1.00;0.80
20157;PMS5003;10239;56.820;24.416;2024-03-06T11:00:47;2.80;2.80;0.00
20157;PMS5003;10239;56.820;24.416;2024-03-06T11:03:15;3.60;2.20;1.00
20157;PMS5003;10239;56.820;24.416;2024-03-06T11:05:44;3.00;3.00;1.00
20157;PMS5003;10239;56.820;24.416;2024-03-06T11:08:15;5.80;2.80;1.00
20157;PMS5003;10239;56.820;24.416;2024-03-06T11:10:44;3.00;2.00;1.00
20157;PMS5003;10239;56.820;24.416;2024-03-06T11:13:22;4.20;4.20;1.00
20157;PMS5003;10239;56.820;24.416;2024-03-06T11:15:53;3.20;2.00;1.00
20157;PMS5003;10239;56.820;24.416;2024-03-06T11:20:59;6.60;1.60;1.00
20157;PMS5003;10239;56.820;24.416;2024-03-06T11:26:35;5.00;2.00;1.00
20157;PMS5003;10239;56.820;24.416;2024-03-06T11:29:03;5.40;2.80;1.00
20157;PMS5003;10239;56.820;24.416;2024-03-06T11:31:31;1.80;1.80;0.20
20157;PMS5003;10239;56.820;24.416;2024-03-06T11:33:58;5.00;2.40;1.00
20157;PMS5003;10239;56.820;24.416;2024-03-06T11:36:33;2.00;2.00;1.00
20157;PMS5003;10239;56.820;24.416;2024-03-06T11:39:07;1.20;1.20;0.00
20157;PMS5003;10239;56.820;24.416;2024-03-06T11:41:48;5.40;2.20;2.00
20157;PMS5003;10239;56.820;24.416;2024-03-06T11:44:20;2.60;2.00;1.00
20157;PMS5003;10239;56.820;24.416;2024-03-06T11:46:57;5.00;2.20;0.80
20157;PMS5003;10239;56.820;24.416;2024-03-06T11:49:32;3.60;2.00;1.00
20157;PMS5003;10239;56.820;24.416;2024-03-06T11:52:02;1.00;1.00;0.00
20157;PMS5003;10239;56.820;24.416;2024-03-06T11:54:37;6.40;5.00;1.00
20157;PMS5003;10239;56.820;24.416;2024-03-06T11:57:05;6.40;5.20;2.00
20157;PMS5003;10239;56.820;24.416;2024-03-06T11:59:34;4.60;3.00;1.40
20157;PMS5003;10239;56.820;24.416;2024-03-06T12:02:06;8.20;4.60;2.00
20157;PMS5003;10239;56.820;24.416;2024-03-06T12:04:34;5.40;4.20;2.00
20157;PMS5003;10239;56.820;24.416;2024-03-06T12:07:06;3.80;3.00;1.80
20157;PMS5003;10239;56.820;24.416;2024-03-06T12:09:37;2.60;2.60;1.20
20157;PMS5003;10239;56.820;24.416;2024-03-06T12:12:09;5.60;5.60;2.00
20157;PMS5003;10239;56.820;24.416;2024-03-06T12:14:39;2.80;2.00;1.00
20157;PMS5003;10239;56.820;24.416;2024-03-06T12:17:11;4.00;1.60;1.00
20157;PMS5003;10239;56.820;24.416;2024-03-06T12:19:43;4.80;3.00;1.00
20157;PMS5003;10239;56.820;24.416;2024-03-06T12:22:12;4.80;4.00;1.00
20157;PMS5003;10239;56.820;24.416;2024-03-06T12:24:41;5.40;2.20;0.80
20157;PMS5003;10239;56.820;24.416;2024-03-06T12:27:09;4.20;3.00;1.80
20157;PMS5003;10239;56.820;24.416;2024-03-06T12:29:37;3.20;3.20;1.00
20157;PMS5003;10239;56.820;24.416;2024-03-06T12:32:05;5.20;5.20;0.80
20157;PMS5003;10239;56.820;24.416;2024-03-06T12:34:44;3.20;3.20;1.20
20157;PMS5003;10239;56.820;24.416;2024-03-06T12:37:11;1.20;1.20;0.40
20157;PMS5003;10239;56.820;24.416;2024-03-06T12:39:38;4.40;2.00;0.00
20157;PMS5003;10239;56.820;24.416;2024-03-06T12:42:09;5.00;2.40;1.00
20157;PMS5003;10239;56.820;24.416;2024-03-06T12:44:39;2.00;2.00;1.00
20157;PMS5003;10239;56.820;24.416;2024-03-06T12:47:07;7.00;3.00;1.00
20157;PMS5003;10239;56.820;24.416;2024-03-06T12:49:35;4.20;4.20;1.80
20157;PMS5003;10239;56.820;24.416;2024-03-06T12:52:02;2.00;2.00;1.00
20157;PMS5003;10239;56.820;24.416;2024-03-06T12:54:31;4.20;2.80;1.00
20157;PMS5003;10239;56.820;24.416;2024-03-06T12:56:59;1.00;1.00;1.00
20157;PMS5003;10239;56.820;24.416;2024-03-06T12:59:36;3.00;1.80;0.20
20157;PMS5003;10239;56.820;24.416;2024-03-06T13:02:03;3.60;1.00;0.00
20157;PMS5003;10239;56.820;24.416;2024-03-06T13:04:31;4.20;1.00;0.00
20157;PMS5003;10239;56.820;24.416;2024-03-06T13:06:58;2.00;2.00;0.00
20157;PMS5003;10239;56.820;24.416;2024-03-06T13:09:26;2.20;2.20;1.00
20157;PMS5003;10239;56.820;24.416;2024-03-06T13:11:53;1.00;1.00;0.20
20157;PMS5003;10239;56.820;24.416;2024-03-06T13:14:21;2.00;2.00;1.00
20157;PMS5003;10239;56.820;24.416;2024-03-06T13:16:49;5.20;1.80;1.00
20157;PMS5003;10239;56.820;24.416;2024-03-06T13:19:16;2.00;2.00;0.20
20157;PMS5003;10239;56.820;24.416;2024-03-06T13:21:44;3.80;1.80;0.80
20157;PMS5003;10239;56.820;24.416;2024-03-06T13:24:11;2.60;1.40;1.00
20157;PMS5003;10239;56.820;24.416;2024-03-06T13:26:39;3.40;3.00;1.00
20157;PMS5003;10239;56.820;24.416;2024-03-06T13:29:07;2.00;2.00;1.00
20157;PMS5003;10239;56.820;24.416;2024-03-06T13:31:35;3.60;2.60;0.80
20157;PMS5003;10239;56.820;24.416;2024-03-06T13:34:03;1.00;1.00;0.00
20157;PMS5003;10239;56.820;24.416;2024-03-06T13:36:31;2.00;1.00;0.00
20157;PMS5003;10239;56.820;24.416;2024-03-06T13:38:59;1.40;1.40;0.00
20157;PMS5003;10239;56.820;24.416;2024-03-06T13:41:26;3.20;1.20;0.60
20157;PMS5003;10239;56.820;24.416;2024-03-06T13:43:55;4.40;2.40;1.00
20157;PMS5003;10239;56.820;24.416;2024-03-06T13:46:22;2.00;1.00;0.00
20157;PMS5003;10239;56.820;24.416;2024-03-06T13:48:50;0.00;0.00;0.00
20157;PMS5003;10239;56.820;24.416;2024-03-06T13:51:17;2.00;1.80;1.00
20157;PMS5003;10239;56.820;24.416;2024-03-06T13:53:44;1.40;1.40;0.40
20157;PMS5003;10239;56.820;24.416;2024-03-06T13:56:12;1.80;1.80;1.60
20157;PMS5003;10239;56.820;24.416;2024-03-06T13:58:40;1.80;1.80;0.00
20157;PMS5003;10239;56.820;24.416;2024-03-06T14:01:08;2.80;2.00;1.00
20157;PMS5003;10239;56.820;24.416;2024-03-06T14:03:35;1.80;1.00;0.00
20157;PMS5003;10239;56.820;24.416;2024-03-06T14:06:06;2.00;2.00;1.00
20157;PMS5003;10239;56.820;24.416;2024-03-06T14:08:36;4.20;1.80;0.40
20157;PMS5003;10239;56.820;24.416;2024-03-06T14:11:06;3.20;1.80;0.00
20157;PMS5003;10239;56.820;24.416;2024-03-06T14:13:34;1.00;1.00;0.00
20157;PMS5003;10239;56.820;24.416;2024-03-06T14:16:01;1.40;1.40;0.60
20157;PMS5003;10239;56.820;24.416;2024-03-06T14:18:29;4.60;0.80;0.00
20157;PMS5003;10239;56.820;24.416;2024-03-06T14:20:57;2.20;2.20;1.00
20157;PMS5003;10239;56.820;24.416;2024-03-06T14:23:24;4.60;2.80;1.00
20157;PMS5003;10239;56.820;24.416;2024-03-06T14:25:51;1.60;1.60;0.60
20157;PMS5003;10239;56.820;24.416;2024-03-06T14:28:19;0.80;0.80;0.00
20157;PMS5003;10239;56.820;24.416;2024-03-06T14:30:46;1.00;1.00;0.80